Time;durP1;ratioP1;P1;durP2;ratioP2;P2;SDS_P1;SDS_P2;PMS_P1;PMS_P2;Temp;Humidity;BMP_temperature;BMP_pressure;BME280_temperature;BME280_humidity;BME280_pressure;Samples;Min_cycle;Max_cycle;Signal;HPM_P1;HPM_P2
2022/05/10 00:00:37;;;;;;;;;28.33;27.00;;;;;;;;4938119;28;46630;-74
2022/05/10 00:03:04;;;;;;;;;27.67;24.67;;;;;;;;4935624;28;45687;-75
2022/05/10 00:05:34;;;;;;;;;23.33;21.67;;;;;;;;4939371;28;45545;-77
2022/05/10 00:08:00;;;;;;;;;27.33;23.00;;;;;;;;4937853;28;45697;-78
2022/05/10 00:10:25;;;;;;;;;37.00;27.00;;;;;;;;4926284;28;45512;-79
2022/05/10 00:12:51;;;;;;;;;30.33;28.00;;;;;;;;4921061;28;45769;-78
2022/05/10 00:15:17;;;;;;;;;40.67;31.33;;;;;;;;4922990;28;45506;-77
2022/05/10 00:17:44;;;;;;;;;36.00;32.67;;;;;;;;4923877;28;45702;-78
2022/05/10 00:20:12;;;;;;;;;32.67;30.00;;;;;;;;4923788;28;45678;-73
2022/05/10 00:22:46;;;;;;;;;28.67;26.33;;;;;;;;4941029;28;45457;-79
2022/05/10 00:25:13;;;;;;;;;30.33;26.67;;;;;;;;4946906;28;45366;-78
2022/05/10 00:27:38;;;;;;;;;23.33;18.33;;;;;;;;4942280;28;45600;-72
2022/05/10 00:30:04;;;;;;;;;31.33;26.33;;;;;;;;4922817;28;45871;-73
2022/05/10 00:32:32;;;;;;;;;39.67;30.67;;;;;;;;4944131;28;45702;-77
2022/05/10 00:34:57;;;;;;;;;30.00;27.67;;;;;;;;4940887;28;45717;-73
2022/05/10 00:37:23;;;;;;;;;31.33;28.00;;;;;;;;4914279;28;45415;-77
2022/05/10 00:39:49;;;;;;;;;26.67;20.33;;;;;;;;4944178;28;45392;-72
2022/05/10 00:42:24;;;;;;;;;29.33;26.67;;;;;;;;4943226;28;45709;-77
2022/05/10 00:44:54;;;;;;;;;34.00;29.67;;;;;;;;4939567;28;45932;-72
2022/05/10 00:47:19;;;;;;;;;28.33;25.00;;;;;;;;4906220;28;46469;-77
2022/05/10 00:49:59;;;;;;;;;29.33;28.33;;;;;;;;4943478;28;45434;-79
2022/05/10 00:52:38;;;;;;;;;32.67;30.67;;;;;;;;4940336;28;45331;-72
2022/05/10 00:55:11;;;;;;;;;32.00;27.67;;;;;;;;4941164;28;45406;-74
2022/05/10 00:57:40;;;;;;;;;25.67;24.67;;;;;;;;4938619;28;45303;-78
2022/05/10 01:00:11;;;;;;;;;33.00;27.00;;;;;;;;4934850;28;45411;-73
2022/05/10 01:02:45;;;;;;;;;30.00;28.33;;;;;;;;4936669;28;45458;-74
2022/05/10 01:05:14;;;;;;;;;32.00;26.33;;;;;;;;4944022;28;45541;-77
2022/05/10 01:08:05;;;;;;;;;31.33;29.00;;;;;;;;4926749;28;45787;-77
2022/05/10 01:10:55;;;;;;;;;25.67;22.33;;;;;;;;4925719;28;46465;-77
2022/05/10 01:13:36;;;;;;;;;30.33;27.33;;;;;;;;4916091;28;45775;-77
2022/05/10 01:16:21;;;;;;;;;35.67;32.00;;;;;;;;4933672;28;45337;-77
2022/05/10 01:18:47;;;;;;;;;41.67;35.00;;;;;;;;4939916;28;45806;-78
2022/05/10 01:21:31;;;;;;;;;48.00;36.67;;;;;;;;4952915;28;45829;-74
2022/05/10 01:24:03;;;;;;;;;40.33;34.33;;;;;;;;4941561;28;45371;-73
2022/05/10 01:26:47;;;;;;;;;39.33;33.67;;;;;;;;4915978;28;45420;-78
2022/05/10 01:29:16;;;;;;;;;46.00;34.67;;;;;;;;4898939;28;45576;-74
2022/05/10 01:33:29;;;;;;;;;47.00;36.33;;;;;;;;4915943;28;45389;-73
2022/05/10 01:34:33;;;;;;;;;48.00;39.67;;;;;;;;4933623;28;45905;-72
2022/05/10 01:37:01;;;;;;;;;50.67;39.00;;;;;;;;4932453;28;45696;-75
2022/05/10 01:39:30;;;;;;;;;48.67;39.00;;;;;;;;4914268;28;46420;-73
2022/05/10 01:42:03;;;;;;;;;46.67;38.00;;;;;;;;4930740;28;48157;-73
2022/05/10 01:44:31;;;;;;;;;50.00;38.67;;;;;;;;4932532;28;45447;-73
2022/05/10 01:46:59;;;;;;;;;47.33;40.67;;;;;;;;4926157;28;45850;-72
2022/05/10 01:49:36;;;;;;;;;55.33;44.00;;;;;;;;4910069;28;46442;-73
2022/05/10 01:52:06;;;;;;;;;50.67;41.67;;;;;;;;4917665;28;46959;-74
2022/05/10 01:54:51;;;;;;;;;49.00;38.33;;;;;;;;4936095;28;45992;-77
2022/05/10 01:57:23;;;;;;;;;42.00;35.33;;;;;;;;4937336;28;45900;-77
2022/05/10 01:59:50;;;;;;;;;52.67;38.33;;;;;;;;4921469;28;45594;-77
2022/05/10 02:02:18;;;;;;;;;45.00;38.00;;;;;;;;4932055;28;46268;-77
2022/05/10 02:04:46;;;;;;;;;50.33;38.67;;;;;;;;4934063;28;45789;-77
2022/05/10 02:07:16;;;;;;;;;49.33;40.00;;;;;;;;4935236;28;45744;-78
2022/05/10 02:09:45;;;;;;;;;46.00;35.00;;;;;;;;4936647;28;45492;-77
2022/05/10 02:12:16;;;;;;;;;43.67;37.00;;;;;;;;4929346;28;45779;-77
2022/05/10 02:14:52;;;;;;;;;42.67;35.67;;;;;;;;4919817;28;45796;-73
2022/05/10 02:17:25;;;;;;;;;37.33;31.33;;;;;;;;4936225;28;45549;-73
2022/05/10 02:20:16;;;;;;;;;26.67;23.00;;;;;;;;4938320;28;45699;-77
2022/05/10 02:22:46;;;;;;;;;36.67;32.67;;;;;;;;4932666;28;45864;-76
2022/05/10 02:25:15;;;;;;;;;35.00;33.00;;;;;;;;4921967;28;45455;-77
2022/05/10 02:27:46;;;;;;;;;37.33;33.67;;;;;;;;4912163;28;45454;-76
2022/05/10 02:30:13;;;;;;;;;36.67;33.67;;;;;;;;4936129;28;45737;-74
2022/05/10 02:35:25;;;;;;;;;44.67;34.67;;;;;;;;4939364;28;45388;-73
2022/05/10 02:37:51;;;;;;;;;35.00;30.67;;;;;;;;4928055;28;45489;-74
2022/05/10 02:40:16;;;;;;;;;35.67;32.33;;;;;;;;4906233;28;45964;-77
2022/05/10 02:42:47;;;;;;;;;30.00;27.33;;;;;;;;4919979;28;47275;-77
2022/05/10 02:45:18;;;;;;;;;32.33;28.33;;;;;;;;4933501;28;45557;-76
2022/05/10 02:47:43;;;;;;;;;31.00;27.33;;;;;;;;4937885;28;45562;-74
2022/05/10 02:50:35;;;;;;;;;30.67;28.67;;;;;;;;4936587;28;45352;-72
2022/05/10 02:53:00;;;;;;;;;29.67;27.67;;;;;;;;4930733;28;46522;-73
2022/05/10 02:55:33;;;;;;;;;25.67;22.33;;;;;;;;4936146;28;46800;-73
2022/05/10 02:58:02;;;;;;;;;29.67;28.33;;;;;;;;4919075;28;45734;-78
2022/05/10 03:00:27;;;;;;;;;31.67;29.67;;;;;;;;4907299;28;46277;-77
2022/05/10 03:02:55;;;;;;;;;28.33;26.00;;;;;;;;4950531;28;45749;-77
2022/05/10 03:05:20;;;;;;;;;30.33;29.33;;;;;;;;4942057;28;44846;-73
2022/05/10 03:07:46;;;;;;;;;31.67;27.33;;;;;;;;4959168;28;45524;-74
2022/05/10 03:10:12;;;;;;;;;32.00;28.33;;;;;;;;4947904;28;47105;-73
2022/05/10 03:12:40;;;;;;;;;28.67;25.67;;;;;;;;4920455;28;46064;-73
2022/05/10 03:15:06;;;;;;;;;29.33;25.33;;;;;;;;4941086;28;45425;-73
2022/05/10 03:17:35;;;;;;;;;29.33;25.67;;;;;;;;4923540;28;45464;-74
2022/05/10 03:20:03;;;;;;;;;34.33;29.00;;;;;;;;4933154;28;45964;-74
2022/05/10 03:22:31;;;;;;;;;31.00;27.33;;;;;;;;4941592;28;45539;-77
2022/05/10 03:24:57;;;;;;;;;30.67;25.33;;;;;;;;4944873;28;45355;-77
2022/05/10 03:27:22;;;;;;;;;27.67;27.67;;;;;;;;4942620;28;45649;-79
2022/05/10 03:29:47;;;;;;;;;32.33;28.67;;;;;;;;4941976;28;45427;-78
2022/05/10 03:32:16;;;;;;;;;31.00;27.00;;;;;;;;4952256;28;45509;-78
2022/05/10 03:34:59;;;;;;;;;27.00;24.67;;;;;;;;4964143;28;45461;-77
2022/05/10 03:37:27;;;;;;;;;32.33;27.00;;;;;;;;4945137;28;45373;-76
2022/05/10 03:39:53;;;;;;;;;31.00;29.67;;;;;;;;4919449;28;46068;-79
2022/05/10 03:42:19;;;;;;;;;35.67;27.33;;;;;;;;4909847;28;45640;-74
2022/05/10 03:44:49;;;;;;;;;30.67;27.67;;;;;;;;4932767;28;46468;-79
2022/05/10 03:47:15;;;;;;;;;26.00;21.33;;;;;;;;4930617;28;45472;-78
2022/05/10 03:49:40;;;;;;;;;30.33;24.67;;;;;;;;4937266;28;45557;-78
2022/05/10 03:52:06;;;;;;;;;31.00;27.33;;;;;;;;4924533;28;47242;-77
2022/05/10 03:54:31;;;;;;;;;29.33;25.00;;;;;;;;4931751;28;45691;-79
2022/05/10 03:57:00;;;;;;;;;26.00;24.67;;;;;;;;4928061;28;45517;-80
2022/05/10 03:59:28;;;;;;;;;31.33;26.33;;;;;;;;4918772;28;45939;-78
2022/05/10 04:01:56;;;;;;;;;29.33;27.67;;;;;;;;4932101;28;46377;-79
2022/05/10 04:04:22;;;;;;;;;27.67;24.33;;;;;;;;4930507;28;45927;-77
2022/05/10 04:06:47;;;;;;;;;32.33;27.67;;;;;;;;4932009;28;45768;-77
2022/05/10 04:09:13;;;;;;;;;29.67;24.00;;;;;;;;4932782;28;45468;-78
2022/05/10 04:11:38;;;;;;;;;31.00;26.67;;;;;;;;4932128;28;46008;-78
2022/05/10 04:14:04;;;;;;;;;25.00;25.00;;;;;;;;4928864;28;45528;-79
2022/05/10 04:16:30;;;;;;;;;26.67;22.67;;;;;;;;4922232;28;45429;-78
2022/05/10 04:18:55;;;;;;;;;33.00;23.67;;;;;;;;4923735;28;45871;-74
2022/05/10 04:21:21;;;;;;;;;32.33;26.00;;;;;;;;4928010;28;48265;-74
2022/05/10 04:23:46;;;;;;;;;28.33;24.00;;;;;;;;4938068;28;45362;-71
2022/05/10 04:26:13;;;;;;;;;26.67;24.33;;;;;;;;4932821;28;45458;-73
2022/05/10 04:28:43;;;;;;;;;28.67;26.67;;;;;;;;4910509;28;46274;-74
2022/05/10 04:31:08;;;;;;;;;29.33;24.00;;;;;;;;4944813;28;46269;-74
2022/05/10 04:33:34;;;;;;;;;27.33;24.33;;;;;;;;4940996;28;45845;-74
2022/05/10 04:36:06;;;;;;;;;29.00;24.00;;;;;;;;4911184;28;45948;-73
2022/05/10 04:38:31;;;;;;;;;34.67;28.67;;;;;;;;4913847;28;45753;-75
2022/05/10 04:43:41;;;;;;;;;21.33;20.67;;;;;;;;4927651;28;45323;-74
2022/05/10 04:46:06;;;;;;;;;28.67;24.67;;;;;;;;4923754;28;45442;-76
2022/05/10 04:48:33;;;;;;;;;26.67;25.00;;;;;;;;4927924;28;45898;-74
2022/05/10 04:50:59;;;;;;;;;34.00;27.67;;;;;;;;4912481;28;46812;-73
2022/05/10 04:53:24;;;;;;;;;32.00;28.67;;;;;;;;4926689;28;45687;-74
2022/05/10 04:55:49;;;;;;;;;29.00;26.67;;;;;;;;4931257;28;45719;-77
2022/05/10 04:58:15;;;;;;;;;27.00;22.33;;;;;;;;4932122;28;45345;-77
2022/05/10 05:00:40;;;;;;;;;25.00;23.00;;;;;;;;4926244;28;46441;-78
2022/05/10 05:03:06;;;;;;;;;28.00;25.00;;;;;;;;4905056;28;45343;-78
2022/05/10 05:05:37;;;;;;;;;17.33;17.33;;;;;;;;4932702;28;45281;-76
2022/05/10 05:08:02;;;;;;;;;16.33;16.33;;;;;;;;4939840;28;45485;-77
2022/05/10 05:10:31;;;;;;;;;15.00;15.00;;;;;;;;4939516;28;46551;-77
2022/05/10 05:12:56;;;;;;;;;17.00;15.00;;;;;;;;4938636;28;45882;-77
2022/05/10 05:15:22;;;;;;;;;14.33;14.33;;;;;;;;4941420;28;46153;-76
2022/05/10 05:17:47;;;;;;;;;15.67;13.67;;;;;;;;4939610;28;45387;-73
2022/05/10 05:20:12;;;;;;;;;15.67;15.00;;;;;;;;4938421;28;45396;-74
2022/05/10 05:22:38;;;;;;;;;18.33;15.67;;;;;;;;4936397;28;45376;-77
2022/05/10 05:25:05;;;;;;;;;19.67;17.00;;;;;;;;4907716;28;45992;-75
2022/05/10 05:27:31;;;;;;;;;17.00;16.67;;;;;;;;4941277;28;45742;-76
2022/05/10 05:29:56;;;;;;;;;14.00;14.00;;;;;;;;4954534;28;45690;-78
2022/05/10 05:32:24;;;;;;;;;16.67;15.33;;;;;;;;4949390;28;45546;-80
2022/05/10 05:35:12;;;;;;;;;;;;;;;;;;;;;
2022/05/10 05:37:38;;;;;;;;;15.00;15.00;;;;;;;;4935667;28;72795;-75
2022/05/10 05:40:08;;;;;;;;;18.67;18.67;;;;;;;;4918929;28;45268;-76
2022/05/10 05:42:34;;;;;;;;;14.67;12.33;;;;;;;;4919928;28;45749;-74
2022/05/10 05:44:59;;;;;;;;;19.33;18.00;;;;;;;;4914004;28;45514;-77
2022/05/10 05:47:25;;;;;;;;;22.33;19.67;;;;;;;;4913244;28;45529;-77
2022/05/10 05:49:51;;;;;;;;;21.00;18.33;;;;;;;;4935406;28;45845;-78
2022/05/10 05:52:20;;;;;;;;;27.00;23.67;;;;;;;;4939277;28;45388;-78
2022/05/10 05:54:45;;;;;;;;;26.00;24.33;;;;;;;;4948326;28;44886;-76
2022/05/10 05:57:11;;;;;;;;;22.33;19.67;;;;;;;;4930389;28;45783;-75
2022/05/10 05:59:37;;;;;;;;;28.67;25.00;;;;;;;;4943692;28;45863;-75
2022/05/10 06:02:03;;;;;;;;;18.67;18.33;;;;;;;;4943831;28;45387;-77
2022/05/10 06:04:28;;;;;;;;;18.00;16.33;;;;;;;;4943960;28;44838;-76
2022/05/10 06:06:54;;;;;;;;;20.67;17.33;;;;;;;;4944366;28;45796;-77
2022/05/10 06:09:22;;;;;;;;;18.50;15.00;;;;;;;;4919720;28;45673;-77
2022/05/10 06:11:48;;;;;;;;;18.33;17.33;;;;;;;;4945186;28;46353;-77
2022/05/10 06:14:13;;;;;;;;;23.67;20.67;;;;;;;;4949405;28;45296;-77
2022/05/10 06:16:42;;;;;;;;;19.33;16.33;;;;;;;;4954251;28;45765;-77
2022/05/10 06:19:09;;;;;;;;;19.33;15.33;;;;;;;;4926894;28;47363;-77
2022/05/10 06:21:34;;;;;;;;;16.33;16.00;;;;;;;;4920696;28;45487;-76
2022/05/10 06:24:00;;;;;;;;;15.00;14.00;;;;;;;;4925497;28;45694;-76
2022/05/10 06:26:25;;;;;;;;;15.33;13.67;;;;;;;;4930957;28;45760;-75
2022/05/10 06:28:51;;;;;;;;;18.67;17.00;;;;;;;;4906555;28;46314;-79
2022/05/10 06:31:17;;;;;;;;;9.00;7.67;;;;;;;;4909092;28;45491;-76
2022/05/10 06:33:42;;;;;;;;;13.67;12.00;;;;;;;;4919609;28;45460;-76
2022/05/10 06:36:08;;;;;;;;;15.33;13.00;;;;;;;;4910063;28;45791;-77
2022/05/10 06:38:34;;;;;;;;;12.67;12.67;;;;;;;;4908687;28;48186;-71
2022/05/10 06:41:01;;;;;;;;;16.00;11.67;;;;;;;;4932799;28;45568;-73
2022/05/10 06:43:27;;;;;;;;;13.67;12.67;;;;;;;;4918838;28;45822;-71
2022/05/10 06:45:53;;;;;;;;;13.33;13.33;;;;;;;;4924095;28;45903;-72
2022/05/10 06:48:19;;;;;;;;;13.00;13.00;;;;;;;;4907118;28;47993;-72
2022/05/10 06:50:45;;;;;;;;;14.33;12.33;;;;;;;;4934876;28;45772;-77
2022/05/10 06:53:10;;;;;;;;;16.00;15.33;;;;;;;;4943069;28;45834;-77
2022/05/10 06:55:41;;;;;;;;;13.33;13.33;;;;;;;;4936178;28;45755;-77
2022/05/10 06:58:07;;;;;;;;;13.00;12.33;;;;;;;;4909070;28;45726;-79
2022/05/10 07:00:35;;;;;;;;;15.00;13.00;;;;;;;;4905654;28;45684;-81
2022/05/10 07:03:09;;;;;;;;;11.33;11.33;;;;;;;;4932105;28;45729;-77
2022/05/10 07:06:16;;;;;;;;;13.00;13.00;;;;;;;;4933604;28;45145;-77
2022/05/10 07:08:42;;;;;;;;;12.67;12.67;;;;;;;;4921276;28;45329;-74
2022/05/10 07:11:08;;;;;;;;;7.67;7.67;;;;;;;;4935646;28;45740;-78
2022/05/10 07:13:34;;;;;;;;;16.33;13.00;;;;;;;;4936085;28;45706;-79
2022/05/10 07:16:00;;;;;;;;;13.67;12.00;;;;;;;;4935903;28;45886;-75
2022/05/10 07:18:26;;;;;;;;;15.33;14.33;;;;;;;;4930077;28;45861;-75
2022/05/10 07:20:52;;;;;;;;;13.67;11.67;;;;;;;;4919266;28;45757;-76
2022/05/10 07:23:21;;;;;;;;;14.00;12.67;;;;;;;;4901610;28;45806;-76
2022/05/10 07:25:47;;;;;;;;;10.67;10.67;;;;;;;;4937957;28;45733;-78
2022/05/10 07:28:12;;;;;;;;;14.67;12.67;;;;;;;;4936822;28;46456;-76
2022/05/10 07:30:38;;;;;;;;;15.00;12.33;;;;;;;;4917862;28;45837;-77
2022/05/10 07:33:03;;;;;;;;;12.67;11.33;;;;;;;;4915943;28;45732;-77
2022/05/10 07:38:15;;;;;;;;;12.00;12.00;;;;;;;;4932002;28;45383;-76
2022/05/10 07:40:41;;;;;;;;;10.00;10.00;;;;;;;;4934439;28;45461;-78
2022/05/10 07:43:10;;;;;;;;;16.33;15.00;;;;;;;;4916673;28;45649;-77
2022/05/10 07:45:36;;;;;;;;;12.33;11.67;;;;;;;;4915796;28;46042;-76
2022/05/10 07:48:02;;;;;;;;;14.67;13.67;;;;;;;;4915401;28;45368;-78
2022/05/10 07:50:28;;;;;;;;;13.67;12.00;;;;;;;;4913891;28;45408;-76
2022/05/10 07:52:54;;;;;;;;;15.67;13.33;;;;;;;;4921181;28;45857;-76
2022/05/10 07:55:19;;;;;;;;;15.00;15.00;;;;;;;;4916780;28;45816;-77
2022/05/10 07:57:45;;;;;;;;;12.67;12.67;;;;;;;;4940675;28;46285;-78
2022/05/10 08:00:14;;;;;;;;;19.67;15.00;;;;;;;;4935595;28;45458;-79
2022/05/10 08:02:42;;;;;;;;;15.00;14.67;;;;;;;;4928427;28;46189;-75
2022/05/10 08:05:12;;;;;;;;;16.33;13.33;;;;;;;;4932380;28;45418;-78
2022/05/10 08:07:37;;;;;;;;;13.33;12.67;;;;;;;;4935112;28;45438;-76
2022/05/10 08:10:04;;;;;;;;;11.33;10.33;;;;;;;;4916291;28;45436;-77
2022/05/10 08:12:30;;;;;;;;;13.33;12.00;;;;;;;;4929083;28;45871;-78
2022/05/10 08:14:55;;;;;;;;;22.33;17.67;;;;;;;;4908844;28;45935;-75
2022/05/10 08:17:20;;;;;;;;;13.67;13.00;;;;;;;;4934100;28;46129;-78
2022/05/10 08:19:46;;;;;;;;;16.00;13.33;;;;;;;;4916592;28;45849;-78
2022/05/10 08:22:12;;;;;;;;;11.33;11.00;;;;;;;;4898467;28;45371;-79
2022/05/10 08:24:38;;;;;;;;;12.33;10.67;;;;;;;;4924129;28;45521;-79
2022/05/10 08:27:04;;;;;;;;;10.00;10.00;;;;;;;;4933193;28;46775;-77
2022/05/10 08:29:29;;;;;;;;;14.00;13.00;;;;;;;;4917129;28;45655;-78
2022/05/10 08:31:56;;;;;;;;;12.00;11.00;;;;;;;;4934290;28;45443;-78
2022/05/10 08:34:21;;;;;;;;;13.50;12.00;;;;;;;;4934641;28;45692;-79
2022/05/10 08:36:46;;;;;;;;;11.67;11.67;;;;;;;;4915416;28;46875;-79
2022/05/10 08:39:13;;;;;;;;;12.00;12.00;;;;;;;;4915267;28;45506;-77
2022/05/10 08:41:48;;;;;;;;;12.67;12.67;;;;;;;;4930774;28;46051;-76
2022/05/10 08:44:15;;;;;;;;;8.75;8.75;;;;;;;;4933737;28;45826;-78
2022/05/10 08:46:43;;;;;;;;;11.00;9.33;;;;;;;;4933482;28;45543;-78
2022/05/10 08:49:14;;;;;;;;;13.67;11.00;;;;;;;;4933742;28;45660;-79
2022/05/10 08:51:40;;;;;;;;;9.67;8.67;;;;;;;;4933281;28;45653;-79
2022/05/10 08:54:06;;;;;;;;;11.00;10.00;;;;;;;;4927915;28;45706;-77
2022/05/10 08:56:39;;;;;;;;;14.00;14.00;;;;;;;;4931536;28;45420;-78
2022/05/10 08:59:23;;;;;;;;;9.00;9.00;;;;;;;;4949368;28;45356;-78
2022/05/10 09:02:08;;;;;;;;;8.00;8.00;;;;;;;;4946453;28;45483;-75
2022/05/10 09:04:36;;;;;;;;;7.67;7.67;;;;;;;;4936315;28;45437;-78
2022/05/10 09:07:02;;;;;;;;;10.33;9.00;;;;;;;;4947100;28;45402;-79
2022/05/10 09:09:32;;;;;;;;;11.00;8.33;;;;;;;;4929080;28;45360;-78
2022/05/10 09:12:04;;;;;;;;;8.67;8.67;;;;;;;;4942173;28;45402;-77
2022/05/10 09:14:32;;;;;;;;;9.00;9.00;;;;;;;;4926599;28;45431;-76
2022/05/10 09:16:59;;;;;;;;;10.00;7.33;;;;;;;;4908678;28;45569;-76
2022/05/10 09:19:40;;;;;;;;;9.33;8.00;;;;;;;;4925532;28;45411;-77
2022/05/10 09:22:12;;;;;;;;;11.00;10.00;;;;;;;;4939280;28;45568;-78
2022/05/10 09:24:48;;;;;;;;;7.33;7.33;;;;;;;;4950854;28;46712;-76
2022/05/10 09:27:14;;;;;;;;;8.67;8.67;;;;;;;;4944685;28;45724;-78
2022/05/10 09:29:44;;;;;;;;;8.00;8.00;;;;;;;;4927029;28;45551;-79
2022/05/10 09:35:24;;;;;;;;;8.67;8.67;;;;;;;;4925358;28;45216;-78
2022/05/10 09:38:06;;;;;;;;;8.00;7.00;;;;;;;;4924306;28;45573;-77
2022/05/10 09:40:41;;;;;;;;;9.00;9.00;;;;;;;;4925238;28;45822;-78
2022/05/10 09:43:10;;;;;;;;;10.67;10.00;;;;;;;;4921487;28;45444;-75
2022/05/10 09:45:36;;;;;;;;;8.00;8.00;;;;;;;;4937791;28;45629;-79
2022/05/10 09:48:07;;;;;;;;;9.33;9.00;;;;;;;;4944223;28;45765;-80
2022/05/10 09:50:40;;;;;;;;;7.67;7.67;;;;;;;;4925585;28;45442;-78
2022/05/10 09:53:11;;;;;;;;;10.00;8.67;;;;;;;;4932200;28;45921;-78
2022/05/10 09:55:37;;;;;;;;;7.67;7.67;;;;;;;;4936189;28;45645;-78
2022/05/10 09:58:14;;;;;;;;;11.00;9.00;;;;;;;;4918379;28;45781;-75
2022/05/10 10:00:44;;;;;;;;;8.33;8.33;;;;;;;;4928312;28;45579;-78
2022/05/10 10:03:21;;;;;;;;;8.67;8.67;;;;;;;;4915023;28;45495;-78
2022/05/10 10:05:47;;;;;;;;;8.00;8.00;;;;;;;;4929017;28;45454;-78
2022/05/10 10:08:12;;;;;;;;;8.00;8.00;;;;;;;;4899369;28;45624;-77
2022/05/10 10:10:41;;;;;;;;;10.00;9.00;;;;;;;;4917130;28;45386;-76
2022/05/10 10:13:27;;;;;;;;;7.00;7.00;;;;;;;;4890833;28;45562;-78
2022/05/10 10:15:53;;;;;;;;;10.67;9.33;;;;;;;;4928523;28;45551;-79
2022/05/10 10:18:38;;;;;;;;;7.00;7.00;;;;;;;;4943309;28;45517;-79
2022/05/10 10:21:05;;;;;;;;;7.00;7.00;;;;;;;;4898543;28;45471;-79
2022/05/10 10:23:33;;;;;;;;;7.00;7.00;;;;;;;;4935393;28;45404;-76
2022/05/10 10:26:01;;;;;;;;;7.00;7.00;;;;;;;;4933660;28;46366;-76
2022/05/10 10:28:49;;;;;;;;;7.67;7.67;;;;;;;;4917416;28;47915;-77
2022/05/10 10:31:27;;;;;;;;;8.00;6.67;;;;;;;;4947307;28;45805;-79
2022/05/10 10:34:05;;;;;;;;;6.33;6.33;;;;;;;;4929885;28;46134;-78
2022/05/10 10:36:38;;;;;;;;;7.00;7.00;;;;;;;;4927382;28;46137;-73
2022/05/10 10:39:23;;;;;;;;;7.00;7.00;;;;;;;;4917209;28;47058;-76
2022/05/10 10:41:55;;;;;;;;;7.33;6.00;;;;;;;;4924247;28;45413;-75
2022/05/10 10:44:23;;;;;;;;;5.67;5.67;;;;;;;;4932664;28;45334;-76
2022/05/10 10:47:07;;;;;;;;;7.67;6.67;;;;;;;;4916493;28;45816;-71
2022/05/10 10:49:48;;;;;;;;;8.00;8.00;;;;;;;;4926277;28;46997;-74
2022/05/10 10:52:14;;;;;;;;;9.00;7.00;;;;;;;;4917013;28;45905;-75
2022/05/10 10:54:39;;;;;;;;;7.67;6.67;;;;;;;;4950114;28;45816;-73
2022/05/10 10:57:31;;;;;;;;;8.33;8.33;;;;;;;;4936208;28;45822;-77
2022/05/10 11:00:08;;;;;;;;;9.00;9.00;;;;;;;;4906175;28;46992;-74
2022/05/10 11:02:39;;;;;;;;;6.67;6.67;;;;;;;;4932512;28;45517;-76
2022/05/10 11:05:09;;;;;;;;;7.00;7.00;;;;;;;;4928790;28;45356;-73
2022/05/10 11:07:43;;;;;;;;;7.00;7.00;;;;;;;;4917709;28;47216;-74
2022/05/10 11:10:31;;;;;;;;;8.67;8.67;;;;;;;;4934585;28;45841;-75
2022/05/10 11:13:15;;;;;;;;;7.67;6.67;;;;;;;;4905295;28;45502;-73
2022/05/10 11:15:41;;;;;;;;;8.50;6.50;;;;;;;;4923118;28;45824;-75
2022/05/10 11:18:09;;;;;;;;;9.00;9.00;;;;;;;;4915091;28;45830;-76
2022/05/10 11:20:43;;;;;;;;;9.67;8.00;;;;;;;;4917909;28;45858;-76
2022/05/10 11:23:10;;;;;;;;;6.67;6.67;;;;;;;;4920206;28;45466;-75
2022/05/10 11:25:54;;;;;;;;;7.25;7.25;;;;;;;;4919555;28;46124;-75
2022/05/10 11:28:39;;;;;;;;;8.00;8.00;;;;;;;;4906526;28;46105;-75
2022/05/10 11:31:12;;;;;;;;;7.00;6.75;;;;;;;;4920372;28;45850;-74
2022/05/10 11:33:40;;;;;;;;;8.00;7.67;;;;;;;;4922184;28;45573;-75
2022/05/10 11:36:18;;;;;;;;;7.00;6.67;;;;;;;;4899990;28;45953;-74
2022/05/10 11:39:01;;;;;;;;;7.75;7.75;;;;;;;;4919546;28;45569;-75
2022/05/10 11:41:39;;;;;;;;;9.00;9.00;;;;;;;;4918579;28;46604;-73
2022/05/10 11:44:04;;;;;;;;;10.75;10.00;;;;;;;;4904071;28;45920;-74
2022/05/10 11:46:52;;;;;;;;;7.00;7.00;;;;;;;;4920511;28;45896;-76
2022/05/10 11:49:36;;;;;;;;;8.25;7.25;;;;;;;;4918094;28;45877;-75
2022/05/10 11:52:20;;;;;;;;;9.67;8.67;;;;;;;;4922618;28;45873;-76
2022/05/10 11:54:56;;;;;;;;;9.00;9.00;;;;;;;;4911626;28;45778;-76
2022/05/10 11:57:22;;;;;;;;;7.00;7.00;;;;;;;;4917896;28;45704;-76
2022/05/10 11:59:48;;;;;;;;;6.50;6.50;;;;;;;;4905228;28;46953;-75
2022/05/10 12:02:29;;;;;;;;;7.33;7.33;;;;;;;;4910927;28;46948;-76
2022/05/10 12:05:09;;;;;;;;;9.33;8.33;;;;;;;;4925789;28;47435;-76
2022/05/10 12:07:41;;;;;;;;;8.00;7.67;;;;;;;;4951795;28;45906;-76
2022/05/10 12:10:27;;;;;;;;;8.00;8.00;;;;;;;;4952111;28;45713;-76
2022/05/10 12:12:52;;;;;;;;;9.50;7.25;;;;;;;;4944275;28;45758;-76
2022/05/10 12:21:21;;;;;;;;;8.67;8.67;;;;;;;;4924109;28;45898;-77
2022/05/10 12:24:02;;;;;;;;;12.00;7.67;;;;;;;;4925557;28;45969;-76
2022/05/10 12:26:35;;;;;;;;;7.00;6.67;;;;;;;;4922793;28;45545;-76
2022/05/10 12:29:01;;;;;;;;;8.75;8.25;;;;;;;;4925852;28;45883;-78
2022/05/10 12:31:32;;;;;;;;;8.25;7.00;;;;;;;;4930659;28;45836;-75
2022/05/10 12:33:59;;;;;;;;;7.50;7.50;;;;;;;;4920160;28;45758;-79
2022/05/10 12:36:29;;;;;;;;;6.67;6.67;;;;;;;;4900990;28;45546;-77
2022/05/10 12:38:54;;;;;;;;;8.00;8.00;;;;;;;;4922438;28;45534;-74
2022/05/10 12:41:31;;;;;;;;;7.00;7.00;;;;;;;;4929366;28;45403;-75
2022/05/10 12:44:06;;;;;;;;;9.00;9.00;;;;;;;;4922472;28;46546;-76
2022/05/10 12:46:36;;;;;;;;;8.75;8.75;;;;;;;;4926378;28;45559;-76
2022/05/10 12:49:09;;;;;;;;;8.67;8.67;;;;;;;;4916987;28;45375;-77
2022/05/10 12:52:00;;;;;;;;;7.00;7.00;;;;;;;;4914517;28;46420;-75
2022/05/10 12:54:26;;;;;;;;;10.50;9.25;;;;;;;;4909532;28;46361;-76
2022/05/10 12:56:58;;;;;;;;;7.75;6.50;;;;;;;;4916119;28;46232;-76
2022/05/10 12:59:29;;;;;;;;;7.25;7.25;;;;;;;;4902529;28;45301;-75
2022/05/10 13:01:57;;;;;;;;;10.25;9.00;;;;;;;;4904156;28;46770;-74
2022/05/10 13:04:23;;;;;;;;;7.25;7.25;;;;;;;;4906085;28;45844;-73
2022/05/10 13:07:07;;;;;;;;;7.25;7.25;;;;;;;;4919925;28;46650;-77
2022/05/10 13:09:38;;;;;;;;;8.00;8.00;;;;;;;;4917765;28;45765;-76
2022/05/10 13:12:13;;;;;;;;;9.00;7.67;;;;;;;;4920580;28;46416;-74
2022/05/10 13:14:41;;;;;;;;;8.33;7.33;;;;;;;;4921708;28;45493;-76
2022/05/10 13:17:06;;;;;;;;;11.00;9.75;;;;;;;;4920786;28;45672;-75
2022/05/10 13:19:37;;;;;;;;;9.00;8.67;;;;;;;;4904278;28;45752;-74
2022/05/10 13:22:06;;;;;;;;;8.25;7.25;;;;;;;;4917963;28;45597;-76
2022/05/10 13:24:32;;;;;;;;;8.50;8.50;;;;;;;;4917448;28;46184;-75
2022/05/10 13:27:01;;;;;;;;;9.50;7.75;;;;;;;;4920844;28;45521;-74
2022/05/10 13:29:48;;;;;;;;;7.75;7.75;;;;;;;;4917487;28;45499;-73
2022/05/10 13:32:26;;;;;;;;;8.33;6.67;;;;;;;;4908089;28;46009;-74
2022/05/10 13:34:52;;;;;;;;;8.67;8.67;;;;;;;;4920183;28;45527;-76
2022/05/10 13:37:22;;;;;;;;;8.33;8.33;;;;;;;;4908448;28;45073;-74
2022/05/10 13:39:47;;;;;;;;;8.33;8.33;;;;;;;;4912367;28;45412;-76
2022/05/10 13:42:15;;;;;;;;;8.33;8.33;;;;;;;;4918763;28;45759;-74
2022/05/10 13:44:41;;;;;;;;;9.50;8.25;;;;;;;;4915242;28;46559;-77
2022/05/10 13:47:15;;;;;;;;;9.67;8.67;;;;;;;;4927596;28;45397;-80
2022/05/10 13:49:44;;;;;;;;;8.33;6.67;;;;;;;;4937857;28;45638;-77
2022/05/10 13:52:29;;;;;;;;;6.00;6.00;;;;;;;;4903690;28;45810;-78
2022/05/10 13:54:56;;;;;;;;;8.00;6.50;;;;;;;;4914346;28;46679;-74
2022/05/10 13:57:31;;;;;;;;;9.67;8.00;;;;;;;;4915282;28;45795;-76
2022/05/10 14:00:05;;;;;;;;;6.00;6.00;;;;;;;;4915909;28;45458;-74
2022/05/10 14:02:30;;;;;;;;;8.00;8.00;;;;;;;;4932150;28;47126;-75
2022/05/10 14:04:56;;;;;;;;;7.75;7.50;;;;;;;;4919809;28;47787;-79
2022/05/10 14:07:27;;;;;;;;;7.50;7.00;;;;;;;;4936140;28;45877;-78
2022/05/10 14:09:53;;;;;;;;;8.00;6.75;;;;;;;;4929093;28;45757;-77
2022/05/10 14:12:34;;;;;;;;;6.75;5.75;;;;;;;;4925322;28;45778;-76
2022/05/10 14:15:10;;;;;;;;;10.33;8.00;;;;;;;;4907198;28;47082;-77
2022/05/10 14:17:36;;;;;;;;;11.00;8.33;;;;;;;;4907306;28;45769;-74
2022/05/10 14:20:13;;;;;;;;;8.67;8.67;;;;;;;;4923467;28;45810;-75
2022/05/10 14:22:44;;;;;;;;;8.50;7.25;;;;;;;;4925321;28;46205;-74
2022/05/10 14:25:11;;;;;;;;;8.50;7.00;;;;;;;;4931561;28;46605;-77
2022/05/10 14:27:51;;;;;;;;;8.50;6.50;;;;;;;;4927598;28;45799;-76
2022/05/10 14:30:23;;;;;;;;;7.67;7.67;;;;;;;;4905855;28;45935;-74
2022/05/10 14:32:49;;;;;;;;;8.50;8.50;;;;;;;;4921800;28;45731;-73
2022/05/10 14:35:26;;;;;;;;;7.00;7.00;;;;;;;;4922872;28;45548;-74
2022/05/10 14:37:52;;;;;;;;;8.25;7.25;;;;;;;;4922643;28;45517;-74
2022/05/10 14:40:40;;;;;;;;;8.67;7.67;;;;;;;;4928768;28;45520;-75
2022/05/10 14:43:08;;;;;;;;;5.33;5.33;;;;;;;;4914716;28;45510;-79
2022/05/10 14:45:36;;;;;;;;;7.33;7.33;;;;;;;;4916682;28;45203;-79
2022/05/10 14:48:18;;;;;;;;;12.00;11.67;;;;;;;;4907685;28;45612;-77
2022/05/10 14:50:44;;;;;;;;;10.00;7.00;;;;;;;;4914845;28;45823;-77
2022/05/10 14:53:13;;;;;;;;;10.33;9.00;;;;;;;;4913465;28;45533;-75
2022/05/10 14:55:40;;;;;;;;;12.00;9.00;;;;;;;;4930797;28;45838;-76
2022/05/10 14:58:07;;;;;;;;;10.00;8.33;;;;;;;;4924976;28;45541;-74
2022/05/10 15:00:38;;;;;;;;;9.00;7.25;;;;;;;;4910959;28;45782;-73
2022/05/10 15:03:08;;;;;;;;;7.33;6.33;;;;;;;;4929569;28;45479;-74